Terminal Aerodrome Forecast
Issued by NWS Paducah, KY

Home | Current Version | Previous Version | Text Only | Print | Product List | Glossary On
Versions: 1 2 3 4 5 6 7 8 9 10 11 12 13 14 15 16 17 18
000
FTUS43 KPAH 192337
TAFEVV
TAF
KEVV 192337Z 2000/2024 VRB02KT P6SM FEW060 SCT200
     FM200600 VRB03KT P6SM SCT200
     FM201400 22008KT P6SM SCT200
     FM201900 23007KT P6SM FEW200 PROB30 2019/2024 4SM -TSRA
      BKN040CB=

USA.gov is the U.S. government's official web portal to all federal, state and local government web resources and services.